sensor_id;sensor_type;location;lat;lon;timestamp;P1;durP1;ratioP1;P2;durP2;ratioP2
55330;SDS011;58851;42.984;20.336;2023-04-24T00:00:15;40.30;;;27.33;;
55330;SDS011;58851;42.984;20.336;2023-04-24T00:02:43;39.08;;;28.10;;
55330;SDS011;58851;42.984;20.336;2023-04-24T00:05:16;35.42;;;25.02;;
55330;SDS011;58851;42.984;20.336;2023-04-24T00:07:43;37.97;;;26.35;;
55330;SDS011;58851;42.984;20.336;2023-04-24T00:10:10;42.50;;;25.70;;
55330;SDS011;58851;42.984;20.336;2023-04-24T00:12:36;41.53;;;28.17;;
55330;SDS011;58851;42.984;20.336;2023-04-24T00:15:03;35.22;;;25.50;;
55330;SDS011;58851;42.984;20.336;2023-04-24T00:17:29;41.13;;;25.10;;
55330;SDS011;58851;42.984;20.336;2023-04-24T00:19:55;41.28;;;27.48;;
55330;SDS011;58851;42.984;20.336;2023-04-24T00:22:26;42.78;;;26.95;;
55330;SDS011;58851;42.984;20.336;2023-04-24T00:24:53;33.78;;;23.73;;
55330;SDS011;58851;42.984;20.336;2023-04-24T00:27:20;39.63;;;25.05;;
55330;SDS011;58851;42.984;20.336;2023-04-24T00:29:46;37.42;;;24.13;;
55330;SDS011;58851;42.984;20.336;2023-04-24T00:32:12;34.63;;;23.60;;
55330;SDS011;58851;42.984;20.336;2023-04-24T00:34:38;30.00;;;21.45;;
55330;SDS011;58851;42.984;20.336;2023-04-24T00:37:04;36.30;;;24.30;;
55330;SDS011;58851;42.984;20.336;2023-04-24T00:39:31;33.78;;;23.83;;
55330;SDS011;58851;42.984;20.336;2023-04-24T00:41:57;35.03;;;23.55;;
55330;SDS011;58851;42.984;20.336;2023-04-24T00:44:23;41.22;;;26.45;;
55330;SDS011;58851;42.984;20.336;2023-04-24T00:46:49;49.60;;;31.60;;
55330;SDS011;58851;42.984;20.336;2023-04-24T00:49:19;43.40;;;30.17;;
55330;SDS011;58851;42.984;20.336;2023-04-24T00:51:48;49.83;;;32.17;;
55330;SDS011;58851;42.984;20.336;2023-04-24T00:54:16;46.53;;;31.08;;
55330;SDS011;58851;42.984;20.336;2023-04-24T00:56:42;31.55;;;21.85;;
55330;SDS011;58851;42.984;20.336;2023-04-24T00:59:09;44.38;;;27.45;;
55330;SDS011;58851;42.984;20.336;2023-04-24T01:01:37;43.83;;;27.00;;
55330;SDS011;58851;42.984;20.336;2023-04-24T01:04:07;33.08;;;20.95;;
55330;SDS011;58851;42.984;20.336;2023-04-24T01:06:35;32.22;;;20.83;;
55330;SDS011;58851;42.984;20.336;2023-04-24T01:09:03;31.00;;;19.73;;
55330;SDS011;58851;42.984;20.336;2023-04-24T01:11:29;26.50;;;18.02;;
55330;SDS011;58851;42.984;20.336;2023-04-24T01:13:56;22.83;;;17.63;;
55330;SDS011;58851;42.984;20.336;2023-04-24T01:16:22;21.30;;;14.73;;
55330;SDS011;58851;42.984;20.336;2023-04-24T01:18:48;20.67;;;14.82;;
55330;SDS011;58851;42.984;20.336;2023-04-24T01:21:15;21.02;;;14.32;;
55330;SDS011;58851;42.984;20.336;2023-04-24T01:23:44;19.33;;;13.38;;
55330;SDS011;58851;42.984;20.336;2023-04-24T01:26:11;26.75;;;15.85;;
55330;SDS011;58851;42.984;20.336;2023-04-24T01:28:37;24.48;;;16.42;;
55330;SDS011;58851;42.984;20.336;2023-04-24T01:31:03;27.08;;;17.30;;
55330;SDS011;58851;42.984;20.336;2023-04-24T01:33:29;26.95;;;15.90;;
55330;SDS011;58851;42.984;20.336;2023-04-24T01:35:56;25.65;;;17.83;;
55330;SDS011;58851;42.984;20.336;2023-04-24T01:38:22;31.45;;;19.65;;
55330;SDS011;58851;42.984;20.336;2023-04-24T01:40:49;37.08;;;23.70;;
55330;SDS011;58851;42.984;20.336;2023-04-24T01:43:16;52.70;;;34.17;;
55330;SDS011;58851;42.984;20.336;2023-04-24T01:45:42;45.13;;;32.10;;
55330;SDS011;58851;42.984;20.336;2023-04-24T01:48:08;48.88;;;32.13;;
55330;SDS011;58851;42.984;20.336;2023-04-24T01:50:34;25.40;;;16.45;;
55330;SDS011;58851;42.984;20.336;2023-04-24T01:53:00;25.08;;;15.15;;
55330;SDS011;58851;42.984;20.336;2023-04-24T01:55:25;22.00;;;15.63;;
55330;SDS011;58851;42.984;20.336;2023-04-24T01:57:52;26.23;;;15.68;;
55330;SDS011;58851;42.984;20.336;2023-04-24T02:00:20;23.52;;;14.63;;
55330;SDS011;58851;42.984;20.336;2023-04-24T02:02:46;20.48;;;14.15;;
55330;SDS011;58851;42.984;20.336;2023-04-24T02:05:12;20.15;;;14.13;;
55330;SDS011;58851;42.984;20.336;2023-04-24T02:07:38;21.08;;;15.63;;
55330;SDS011;58851;42.984;20.336;2023-04-24T02:10:05;22.65;;;17.95;;
55330;SDS011;58851;42.984;20.336;2023-04-24T02:12:31;29.35;;;20.20;;
55330;SDS011;58851;42.984;20.336;2023-04-24T02:14:57;34.58;;;22.48;;
55330;SDS011;58851;42.984;20.336;2023-04-24T02:17:22;28.30;;;18.52;;
55330;SDS011;58851;42.984;20.336;2023-04-24T02:19:48;29.75;;;17.45;;
55330;SDS011;58851;42.984;20.336;2023-04-24T02:22:14;27.33;;;17.15;;
55330;SDS011;58851;42.984;20.336;2023-04-24T02:24:40;38.45;;;20.13;;
55330;SDS011;58851;42.984;20.336;2023-04-24T02:27:06;41.45;;;25.25;;
55330;SDS011;58851;42.984;20.336;2023-04-24T02:29:32;42.10;;;26.20;;
55330;SDS011;58851;42.984;20.336;2023-04-24T02:31:58;50.22;;;35.58;;
55330;SDS011;58851;42.984;20.336;2023-04-24T02:34:24;56.05;;;38.97;;
55330;SDS011;58851;42.984;20.336;2023-04-24T02:36:49;75.70;;;49.30;;
55330;SDS011;58851;42.984;20.336;2023-04-24T02:39:15;76.30;;;50.80;;
55330;SDS011;58851;42.984;20.336;2023-04-24T02:41:42;56.53;;;35.47;;
55330;SDS011;58851;42.984;20.336;2023-04-24T02:44:08;22.90;;;18.00;;
55330;SDS011;58851;42.984;20.336;2023-04-24T02:46:34;26.27;;;20.08;;
55330;SDS011;58851;42.984;20.336;2023-04-24T02:49:00;25.08;;;16.65;;
55330;SDS011;58851;42.984;20.336;2023-04-24T02:51:26;31.48;;;17.30;;
55330;SDS011;58851;42.984;20.336;2023-04-24T02:53:52;24.65;;;16.63;;
55330;SDS011;58851;42.984;20.336;2023-04-24T02:56:18;23.13;;;16.63;;
55330;SDS011;58851;42.984;20.336;2023-04-24T02:58:43;30.25;;;19.98;;
55330;SDS011;58851;42.984;20.336;2023-04-24T03:01:09;23.90;;;17.25;;
55330;SDS011;58851;42.984;20.336;2023-04-24T03:03:36;23.77;;;16.77;;
55330;SDS011;58851;42.984;20.336;2023-04-24T03:06:02;23.60;;;15.43;;
55330;SDS011;58851;42.984;20.336;2023-04-24T03:08:30;17.75;;;12.85;;
55330;SDS011;58851;42.984;20.336;2023-04-24T03:10:57;21.15;;;14.18;;
55330;SDS011;58851;42.984;20.336;2023-04-24T03:13:23;18.42;;;14.02;;
55330;SDS011;58851;42.984;20.336;2023-04-24T03:15:48;27.38;;;16.83;;
55330;SDS011;58851;42.984;20.336;2023-04-24T03:18:14;43.65;;;25.90;;
55330;SDS011;58851;42.984;20.336;2023-04-24T03:20:41;40.88;;;26.73;;
55330;SDS011;58851;42.984;20.336;2023-04-24T03:23:07;41.30;;;24.25;;
55330;SDS011;58851;42.984;20.336;2023-04-24T03:25:33;42.58;;;27.88;;
55330;SDS011;58851;42.984;20.336;2023-04-24T03:27:59;52.22;;;27.88;;
55330;SDS011;58851;42.984;20.336;2023-04-24T03:30:24;37.30;;;26.23;;
55330;SDS011;58851;42.984;20.336;2023-04-24T03:32:50;38.65;;;26.05;;
55330;SDS011;58851;42.984;20.336;2023-04-24T03:35:16;32.33;;;21.73;;
55330;SDS011;58851;42.984;20.336;2023-04-24T03:37:42;27.52;;;15.80;;
55330;SDS011;58851;42.984;20.336;2023-04-24T03:40:08;22.15;;;15.77;;
55330;SDS011;58851;42.984;20.336;2023-04-24T03:42:34;23.58;;;15.57;;
55330;SDS011;58851;42.984;20.336;2023-04-24T03:45:00;27.42;;;16.00;;
55330;SDS011;58851;42.984;20.336;2023-04-24T03:47:25;28.33;;;16.33;;
55330;SDS011;58851;42.984;20.336;2023-04-24T03:49:51;26.38;;;18.17;;
55330;SDS011;58851;42.984;20.336;2023-04-24T03:52:18;27.42;;;18.05;;
55330;SDS011;58851;42.984;20.336;2023-04-24T03:54:44;27.25;;;16.27;;
55330;SDS011;58851;42.984;20.336;2023-04-24T03:57:10;25.40;;;15.93;;
55330;SDS011;58851;42.984;20.336;2023-04-24T03:59:36;26.38;;;18.45;;
55330;SDS011;58851;42.984;20.336;2023-04-24T04:02:01;26.83;;;18.83;;
55330;SDS011;58851;42.984;20.336;2023-04-24T04:04:27;24.35;;;16.73;;
55330;SDS011;58851;42.984;20.336;2023-04-24T04:06:53;20.50;;;15.80;;
55330;SDS011;58851;42.984;20.336;2023-04-24T04:09:19;26.90;;;19.50;;
55330;SDS011;58851;42.984;20.336;2023-04-24T04:11:45;35.40;;;25.73;;
55330;SDS011;58851;42.984;20.336;2023-04-24T04:14:10;62.17;;;38.03;;
55330;SDS011;58851;42.984;20.336;2023-04-24T04:16:36;44.10;;;27.70;;
55330;SDS011;58851;42.984;20.336;2023-04-24T04:19:02;37.35;;;23.00;;
55330;SDS011;58851;42.984;20.336;2023-04-24T04:21:28;37.88;;;23.40;;
55330;SDS011;58851;42.984;20.336;2023-04-24T04:23:55;48.97;;;33.28;;
55330;SDS011;58851;42.984;20.336;2023-04-24T04:26:21;45.13;;;32.58;;
55330;SDS011;58851;42.984;20.336;2023-04-24T04:28:50;45.22;;;32.42;;
55330;SDS011;58851;42.984;20.336;2023-04-24T04:31:19;41.63;;;30.35;;
55330;SDS011;58851;42.984;20.336;2023-04-24T04:33:46;48.50;;;31.48;;
55330;SDS011;58851;42.984;20.336;2023-04-24T04:36:11;42.60;;;28.60;;
55330;SDS011;58851;42.984;20.336;2023-04-24T04:38:37;34.88;;;25.42;;
55330;SDS011;58851;42.984;20.336;2023-04-24T04:41:03;33.47;;;24.30;;
55330;SDS011;58851;42.984;20.336;2023-04-24T04:43:29;34.55;;;24.73;;
55330;SDS011;58851;42.984;20.336;2023-04-24T04:45:56;31.88;;;21.35;;
55330;SDS011;58851;42.984;20.336;2023-04-24T04:48:23;31.67;;;20.42;;
55330;SDS011;58851;42.984;20.336;2023-04-24T04:50:48;28.90;;;21.15;;
55330;SDS011;58851;42.984;20.336;2023-04-24T04:53:15;36.85;;;25.90;;
55330;SDS011;58851;42.984;20.336;2023-04-24T04:55:40;31.60;;;23.05;;
55330;SDS011;58851;42.984;20.336;2023-04-24T04:58:06;44.05;;;24.98;;
55330;SDS011;58851;42.984;20.336;2023-04-24T05:00:32;41.85;;;27.15;;
55330;SDS011;58851;42.984;20.336;2023-04-24T05:03:01;43.55;;;29.77;;
55330;SDS011;58851;42.984;20.336;2023-04-24T05:05:27;37.92;;;27.02;;
55330;SDS011;58851;42.984;20.336;2023-04-24T05:07:53;40.67;;;28.05;;
55330;SDS011;58851;42.984;20.336;2023-04-24T05:10:19;41.10;;;27.63;;
55330;SDS011;58851;42.984;20.336;2023-04-24T05:12:45;35.28;;;25.08;;
55330;SDS011;58851;42.984;20.336;2023-04-24T05:15:11;42.67;;;28.88;;
55330;SDS011;58851;42.984;20.336;2023-04-24T05:17:37;37.00;;;25.98;;
55330;SDS011;58851;42.984;20.336;2023-04-24T05:20:04;32.35;;;26.40;;
55330;SDS011;58851;42.984;20.336;2023-04-24T05:22:31;37.42;;;25.65;;
55330;SDS011;58851;42.984;20.336;2023-04-24T05:24:57;39.38;;;27.15;;
55330;SDS011;58851;42.984;20.336;2023-04-24T05:27:23;49.65;;;28.70;;
55330;SDS011;58851;42.984;20.336;2023-04-24T05:29:49;53.08;;;31.85;;
55330;SDS011;58851;42.984;20.336;2023-04-24T05:32:15;54.47;;;36.53;;
55330;SDS011;58851;42.984;20.336;2023-04-24T05:34:41;51.17;;;38.33;;
55330;SDS011;58851;42.984;20.336;2023-04-24T05:37:06;52.35;;;38.28;;
55330;SDS011;58851;42.984;20.336;2023-04-24T05:39:35;53.72;;;34.80;;
55330;SDS011;58851;42.984;20.336;2023-04-24T05:42:01;45.40;;;33.35;;
55330;SDS011;58851;42.984;20.336;2023-04-24T05:44:29;53.17;;;36.15;;
55330;SDS011;58851;42.984;20.336;2023-04-24T05:46:55;57.13;;;37.00;;
55330;SDS011;58851;42.984;20.336;2023-04-24T05:49:21;46.30;;;32.58;;
55330;SDS011;58851;42.984;20.336;2023-04-24T05:51:48;49.55;;;34.30;;
55330;SDS011;58851;42.984;20.336;2023-04-24T05:54:13;36.13;;;26.38;;
55330;SDS011;58851;42.984;20.336;2023-04-24T05:56:39;36.38;;;25.85;;
55330;SDS011;58851;42.984;20.336;2023-04-24T05:59:05;36.88;;;28.05;;
55330;SDS011;58851;42.984;20.336;2023-04-24T06:01:32;40.60;;;28.05;;
55330;SDS011;58851;42.984;20.336;2023-04-24T06:03:58;46.05;;;33.38;;
55330;SDS011;58851;42.984;20.336;2023-04-24T06:06:24;44.63;;;32.97;;
55330;SDS011;58851;42.984;20.336;2023-04-24T06:08:51;47.83;;;35.88;;
55330;SDS011;58851;42.984;20.336;2023-04-24T06:11:16;49.58;;;34.88;;
55330;SDS011;58851;42.984;20.336;2023-04-24T06:13:42;48.58;;;34.78;;
55330;SDS011;58851;42.984;20.336;2023-04-24T06:16:08;43.95;;;30.67;;
55330;SDS011;58851;42.984;20.336;2023-04-24T06:18:34;51.53;;;35.45;;
55330;SDS011;58851;42.984;20.336;2023-04-24T06:21:00;46.47;;;33.72;;
55330;SDS011;58851;42.984;20.336;2023-04-24T06:23:26;56.58;;;38.78;;
55330;SDS011;58851;42.984;20.336;2023-04-24T06:25:52;50.20;;;37.70;;
55330;SDS011;58851;42.984;20.336;2023-04-24T06:28:18;64.85;;;38.33;;
55330;SDS011;58851;42.984;20.336;2023-04-24T06:30:43;50.88;;;35.20;;
55330;SDS011;58851;42.984;20.336;2023-04-24T06:33:09;49.60;;;35.08;;
55330;SDS011;58851;42.984;20.336;2023-04-24T06:35:35;60.33;;;40.60;;
55330;SDS011;58851;42.984;20.336;2023-04-24T06:38:03;56.60;;;36.65;;
55330;SDS011;58851;42.984;20.336;2023-04-24T06:40:29;55.28;;;34.63;;
55330;SDS011;58851;42.984;20.336;2023-04-24T06:42:55;50.80;;;33.28;;
55330;SDS011;58851;42.984;20.336;2023-04-24T06:45:22;53.40;;;39.22;;
55330;SDS011;58851;42.984;20.336;2023-04-24T06:47:48;53.35;;;34.55;;
55330;SDS011;58851;42.984;20.336;2023-04-24T06:50:14;45.22;;;34.20;;
55330;SDS011;58851;42.984;20.336;2023-04-24T06:52:41;46.17;;;31.20;;
55330;SDS011;58851;42.984;20.336;2023-04-24T06:55:07;51.08;;;40.90;;
55330;SDS011;58851;42.984;20.336;2023-04-24T06:57:33;49.40;;;37.75;;
55330;SDS011;58851;42.984;20.336;2023-04-24T06:59:59;52.78;;;37.97;;
55330;SDS011;58851;42.984;20.336;2023-04-24T07:02:25;60.38;;;43.00;;
55330;SDS011;58851;42.984;20.336;2023-04-24T07:04:50;45.28;;;28.27;;
55330;SDS011;58851;42.984;20.336;2023-04-24T07:07:17;41.38;;;28.02;;
55330;SDS011;58851;42.984;20.336;2023-04-24T07:09:43;51.63;;;35.22;;
55330;SDS011;58851;42.984;20.336;2023-04-24T07:12:10;62.13;;;34.95;;
55330;SDS011;58851;42.984;20.336;2023-04-24T07:14:37;43.20;;;31.70;;
55330;SDS011;58851;42.984;20.336;2023-04-24T07:17:03;45.30;;;31.48;;
55330;SDS011;58851;42.984;20.336;2023-04-24T07:19:30;42.00;;;28.90;;
55330;SDS011;58851;42.984;20.336;2023-04-24T07:21:56;34.85;;;22.98;;
55330;SDS011;58851;42.984;20.336;2023-04-24T07:24:23;31.25;;;20.80;;
55330;SDS011;58851;42.984;20.336;2023-04-24T07:26:52;33.25;;;22.55;;
55330;SDS011;58851;42.984;20.336;2023-04-24T07:29:19;42.90;;;29.45;;
55330;SDS011;58851;42.984;20.336;2023-04-24T07:31:46;47.90;;;35.15;;
55330;SDS011;58851;42.984;20.336;2023-04-24T07:34:11;37.15;;;25.83;;
55330;SDS011;58851;42.984;20.336;2023-04-24T07:36:37;26.63;;;18.67;;
55330;SDS011;58851;42.984;20.336;2023-04-24T07:39:03;21.13;;;14.48;;
55330;SDS011;58851;42.984;20.336;2023-04-24T07:41:30;19.17;;;14.52;;
55330;SDS011;58851;42.984;20.336;2023-04-24T07:43:56;17.02;;;12.43;;
55330;SDS011;58851;42.984;20.336;2023-04-24T07:46:23;25.65;;;16.17;;
55330;SDS011;58851;42.984;20.336;2023-04-24T07:48:49;20.52;;;14.55;;
55330;SDS011;58851;42.984;20.336;2023-04-24T07:51:16;35.08;;;23.98;;
55330;SDS011;58851;42.984;20.336;2023-04-24T07:53:42;15.57;;;11.38;;
55330;SDS011;58851;42.984;20.336;2023-04-24T07:56:08;6.43;;;4.85;;
55330;SDS011;58851;42.984;20.336;2023-04-24T07:58:35;8.93;;;5.13;;
55330;SDS011;58851;42.984;20.336;2023-04-24T08:01:00;8.13;;;5.00;;
55330;SDS011;58851;42.984;20.336;2023-04-24T08:03:26;7.43;;;5.82;;
55330;SDS011;58851;42.984;20.336;2023-04-24T08:05:52;14.02;;;9.02;;
55330;SDS011;58851;42.984;20.336;2023-04-24T08:08:20;9.00;;;5.88;;
55330;SDS011;58851;42.984;20.336;2023-04-24T08:10:47;8.27;;;5.38;;
55330;SDS011;58851;42.984;20.336;2023-04-24T08:13:13;7.65;;;5.40;;
55330;SDS011;58851;42.984;20.336;2023-04-24T08:15:39;7.20;;;5.97;;
55330;SDS011;58851;42.984;20.336;2023-04-24T08:18:04;9.38;;;5.05;;
55330;SDS011;58851;42.984;20.336;2023-04-24T08:20:30;4.80;;;3.63;;
55330;SDS011;58851;42.984;20.336;2023-04-24T08:22:56;8.75;;;5.30;;
55330;SDS011;58851;42.984;20.336;2023-04-24T08:25:22;9.57;;;5.47;;
55330;SDS011;58851;42.984;20.336;2023-04-24T08:27:50;8.73;;;5.10;;
55330;SDS011;58851;42.984;20.336;2023-04-24T08:30:16;7.47;;;4.72;;
55330;SDS011;58851;42.984;20.336;2023-04-24T08:32:42;7.35;;;5.50;;
55330;SDS011;58851;42.984;20.336;2023-04-24T08:35:08;10.10;;;4.82;;
55330;SDS011;58851;42.984;20.336;2023-04-24T08:37:34;5.10;;;3.50;;
55330;SDS011;58851;42.984;20.336;2023-04-24T08:40:01;10.50;;;5.85;;
55330;SDS011;58851;42.984;20.336;2023-04-24T08:42:32;7.05;;;4.03;;
55330;SDS011;58851;42.984;20.336;2023-04-24T08:44:59;7.13;;;4.95;;
55330;SDS011;58851;42.984;20.336;2023-04-24T08:47:25;11.65;;;10.40;;
55330;SDS011;58851;42.984;20.336;2023-04-24T08:49:52;11.18;;;7.38;;
55330;SDS011;58851;42.984;20.336;2023-04-24T08:52:19;22.40;;;12.70;;
55330;SDS011;58851;42.984;20.336;2023-04-24T08:54:47;10.02;;;6.25;;
55330;SDS011;58851;42.984;20.336;2023-04-24T08:57:13;11.07;;;6.95;;
55330;SDS011;58851;42.984;20.336;2023-04-24T08:59:40;19.75;;;9.70;;
55330;SDS011;58851;42.984;20.336;2023-04-24T09:02:09;13.20;;;6.43;;
55330;SDS011;58851;42.984;20.336;2023-04-24T09:04:36;10.82;;;6.40;;
55330;SDS011;58851;42.984;20.336;2023-04-24T09:07:02;11.88;;;5.60;;
55330;SDS011;58851;42.984;20.336;2023-04-24T09:09:31;8.85;;;5.40;;
55330;SDS011;58851;42.984;20.336;2023-04-24T09:11:58;6.95;;;4.88;;
55330;SDS011;58851;42.984;20.336;2023-04-24T09:14:25;9.55;;;6.18;;
55330;SDS011;58851;42.984;20.336;2023-04-24T09:16:53;10.18;;;6.63;;
55330;SDS011;58851;42.984;20.336;2023-04-24T09:19:18;8.02;;;4.28;;
55330;SDS011;58851;42.984;20.336;2023-04-24T09:21:46;7.53;;;5.45;;
55330;SDS011;58851;42.984;20.336;2023-04-24T09:24:16;9.80;;;5.93;;
55330;SDS011;58851;42.984;20.336;2023-04-24T09:26:47;8.52;;;5.63;;
55330;SDS011;58851;42.984;20.336;2023-04-24T09:29:15;9.50;;;5.50;;
55330;SDS011;58851;42.984;20.336;2023-04-24T09:31:45;7.55;;;5.32;;
55330;SDS011;58851;42.984;20.336;2023-04-24T09:34:11;7.18;;;4.63;;
55330;SDS011;58851;42.984;20.336;2023-04-24T09:36:38;10.15;;;5.53;;
55330;SDS011;58851;42.984;20.336;2023-04-24T09:39:06;7.60;;;5.65;;
55330;SDS011;58851;42.984;20.336;2023-04-24T09:41:35;8.50;;;5.63;;
55330;SDS011;58851;42.984;20.336;2023-04-24T09:44:13;10.73;;;6.57;;
55330;SDS011;58851;42.984;20.336;2023-04-24T09:46:45;9.27;;;6.07;;
55330;SDS011;58851;42.984;20.336;2023-04-24T09:49:16;7.35;;;4.65;;
55330;SDS011;58851;42.984;20.336;2023-04-24T09:51:47;6.88;;;4.18;;
55330;SDS011;58851;42.984;20.336;2023-04-24T09:54:19;5.95;;;3.72;;
55330;SDS011;58851;42.984;20.336;2023-04-24T09:56:47;7.47;;;5.03;;
55330;SDS011;58851;42.984;20.336;2023-04-24T09:59:16;7.10;;;4.93;;
55330;SDS011;58851;42.984;20.336;2023-04-24T10:01:45;6.68;;;4.35;;
55330;SDS011;58851;42.984;20.336;2023-04-24T10:04:23;8.07;;;4.75;;
55330;SDS011;58851;42.984;20.336;2023-04-24T10:06:54;7.45;;;4.22;;
55330;SDS011;58851;42.984;20.336;2023-04-24T10:09:22;9.43;;;5.80;;
55330;SDS011;58851;42.984;20.336;2023-04-24T10:11:50;10.32;;;6.75;;
55330;SDS011;58851;42.984;20.336;2023-04-24T10:14:22;5.97;;;4.20;;
55330;SDS011;58851;42.984;20.336;2023-04-24T10:16:50;7.15;;;4.70;;
55330;SDS011;58851;42.984;20.336;2023-04-24T10:19:18;11.18;;;5.93;;
55330;SDS011;58851;42.984;20.336;2023-04-24T10:21:45;9.48;;;4.88;;
55330;SDS011;58851;42.984;20.336;2023-04-24T10:24:14;9.85;;;5.45;;
55330;SDS011;58851;42.984;20.336;2023-04-24T10:26:42;13.52;;;5.45;;
55330;SDS011;58851;42.984;20.336;2023-04-24T10:29:09;7.32;;;2.92;;
55330;SDS011;58851;42.984;20.336;2023-04-24T10:31:37;8.45;;;4.30;;
55330;SDS011;58851;42.984;20.336;2023-04-24T10:34:07;12.40;;;5.10;;
55330;SDS011;58851;42.984;20.336;2023-04-24T10:36:35;10.25;;;4.40;;
55330;SDS011;58851;42.984;20.336;2023-04-24T10:39:06;8.05;;;4.10;;
55330;SDS011;58851;42.984;20.336;2023-04-24T10:41:39;8.73;;;5.35;;
55330;SDS011;58851;42.984;20.336;2023-04-24T10:44:06;12.10;;;6.20;;
55330;SDS011;58851;42.984;20.336;2023-04-24T10:46:33;10.35;;;5.60;;
55330;SDS011;58851;42.984;20.336;2023-04-24T10:48:59;14.25;;;8.95;;
55330;SDS011;58851;42.984;20.336;2023-04-24T10:51:47;11.45;;;7.20;;
55330;SDS011;58851;42.984;20.336;2023-04-24T10:54:24;11.40;;;5.72;;
55330;SDS011;58851;42.984;20.336;2023-04-24T10:56:52;12.68;;;7.53;;
55330;SDS011;58851;42.984;20.336;2023-04-24T10:59:25;12.38;;;8.02;;
55330;SDS011;58851;42.984;20.336;2023-04-24T11:01:53;16.33;;;9.15;;
55330;SDS011;58851;42.984;20.336;2023-04-24T11:04:29;11.63;;;8.40;;
55330;SDS011;58851;42.984;20.336;2023-04-24T11:06:56;16.50;;;10.63;;
55330;SDS011;58851;42.984;20.336;2023-04-24T11:09:22;13.25;;;10.32;;
55330;SDS011;58851;42.984;20.336;2023-04-24T11:11:53;14.65;;;10.75;;
55330;SDS011;58851;42.984;20.336;2023-04-24T11:20:05;67.47;;;44.53;;
55330;SDS011;58851;42.984;20.336;2023-04-24T11:22:33;24.33;;;16.63;;
55330;SDS011;58851;42.984;20.336;2023-04-24T11:25:03;20.52;;;14.95;;
55330;SDS011;58851;42.984;20.336;2023-04-24T11:27:38;14.43;;;9.57;;
55330;SDS011;58851;42.984;20.336;2023-04-24T11:30:07;13.10;;;10.68;;
55330;SDS011;58851;42.984;20.336;2023-04-24T11:32:36;16.38;;;13.65;;
55330;SDS011;58851;42.984;20.336;2023-04-24T11:35:20;21.88;;;14.43;;
55330;SDS011;58851;42.984;20.336;2023-04-24T11:37:50;16.95;;;12.75;;
55330;SDS011;58851;42.984;20.336;2023-04-24T11:40:20;20.00;;;14.45;;
55330;SDS011;58851;42.984;20.336;2023-04-24T11:42:51;14.05;;;10.25;;
55330;SDS011;58851;42.984;20.336;2023-04-24T11:45:20;18.38;;;13.68;;
55330;SDS011;58851;42.984;20.336;2023-04-24T11:47:51;8.40;;;6.35;;
55330;SDS011;58851;42.984;20.336;2023-04-24T11:50:18;11.43;;;7.75;;
55330;SDS011;58851;42.984;20.336;2023-04-24T11:52:46;11.13;;;8.32;;
55330;SDS011;58851;42.984;20.336;2023-04-24T11:57:52;9.43;;;7.03;;
55330;SDS011;58851;42.984;20.336;2023-04-24T12:00:28;9.00;;;6.05;;
55330;SDS011;58851;42.984;20.336;2023-04-24T12:03:11;11.65;;;6.90;;
55330;SDS011;58851;42.984;20.336;2023-04-24T12:05:37;21.90;;;19.52;;
55330;SDS011;58851;42.984;20.336;2023-04-24T12:08:04;9.15;;;6.68;;
55330;SDS011;58851;42.984;20.336;2023-04-24T12:10:32;8.50;;;5.80;;
55330;SDS011;58851;42.984;20.336;2023-04-24T12:12:58;10.60;;;7.28;;
55330;SDS011;58851;42.984;20.336;2023-04-24T12:15:25;17.92;;;12.85;;
55330;SDS011;58851;42.984;20.336;2023-04-24T12:17:51;12.48;;;9.90;;
55330;SDS011;58851;42.984;20.336;2023-04-24T12:20:23;15.60;;;12.77;;
55330;SDS011;58851;42.984;20.336;2023-04-24T12:25:20;17.25;;;13.45;;
55330;SDS011;58851;42.984;20.336;2023-04-24T12:27:52;18.00;;;14.25;;
55330;SDS011;58851;42.984;20.336;2023-04-24T12:30:48;23.85;;;16.77;;
55330;SDS011;58851;42.984;20.336;2023-04-24T12:33:17;21.20;;;16.30;;
55330;SDS011;58851;42.984;20.336;2023-04-24T12:35:44;17.90;;;14.02;;
55330;SDS011;58851;42.984;20.336;2023-04-24T12:38:15;17.13;;;12.07;;
55330;SDS011;58851;42.984;20.336;2023-04-24T12:40:43;21.80;;;15.82;;
55330;SDS011;58851;42.984;20.336;2023-04-24T12:43:13;14.50;;;11.48;;
55330;SDS011;58851;42.984;20.336;2023-04-24T12:45:40;20.73;;;15.25;;
55330;SDS011;58851;42.984;20.336;2023-04-24T12:48:06;19.45;;;14.23;;
55330;SDS011;58851;42.984;20.336;2023-04-24T12:50:32;16.13;;;11.27;;
55330;SDS011;58851;42.984;20.336;2023-04-24T12:52:58;13.27;;;10.63;;
55330;SDS011;58851;42.984;20.336;2023-04-24T12:55:23;22.35;;;14.40;;
55330;SDS011;58851;42.984;20.336;2023-04-24T12:57:49;10.10;;;7.63;;
55330;SDS011;58851;42.984;20.336;2023-04-24T13:00:15;12.85;;;8.82;;
55330;SDS011;58851;42.984;20.336;2023-04-24T13:02:41;14.18;;;9.40;;
55330;SDS011;58851;42.984;20.336;2023-04-24T13:05:08;12.48;;;10.10;;
55330;SDS011;58851;42.984;20.336;2023-04-24T13:07:34;15.07;;;11.30;;
55330;SDS011;58851;42.984;20.336;2023-04-24T13:10:00;10.68;;;8.18;;
55330;SDS011;58851;42.984;20.336;2023-04-24T13:12:25;9.85;;;8.05;;
55330;SDS011;58851;42.984;20.336;2023-04-24T13:14:51;10.68;;;5.93;;
55330;SDS011;58851;42.984;20.336;2023-04-24T13:17:18;12.40;;;9.63;;
55330;SDS011;58851;42.984;20.336;2023-04-24T13:19:44;9.23;;;6.00;;
55330;SDS011;58851;42.984;20.336;2023-04-24T13:22:11;8.32;;;6.43;;
55330;SDS011;58851;42.984;20.336;2023-04-24T13:24:37;6.32;;;4.70;;
55330;SDS011;58851;42.984;20.336;2023-04-24T13:27:05;7.45;;;5.63;;
55330;SDS011;58851;42.984;20.336;2023-04-24T13:29:31;7.50;;;5.40;;
55330;SDS011;58851;42.984;20.336;2023-04-24T13:31:57;21.48;;;17.08;;
55330;SDS011;58851;42.984;20.336;2023-04-24T13:34:23;9.98;;;7.90;;
55330;SDS011;58851;42.984;20.336;2023-04-24T13:36:53;22.67;;;14.18;;
55330;SDS011;58851;42.984;20.336;2023-04-24T13:39:21;23.20;;;15.68;;
55330;SDS011;58851;42.984;20.336;2023-04-24T13:41:48;28.73;;;21.08;;
55330;SDS011;58851;42.984;20.336;2023-04-24T13:44:15;13.45;;;10.13;;
55330;SDS011;58851;42.984;20.336;2023-04-24T13:46:42;10.10;;;7.10;;
55330;SDS011;58851;42.984;20.336;2023-04-24T13:49:09;12.40;;;7.95;;
55330;SDS011;58851;42.984;20.336;2023-04-24T13:51:36;16.02;;;9.80;;
55330;SDS011;58851;42.984;20.336;2023-04-24T13:54:01;22.38;;;15.25;;
55330;SDS011;58851;42.984;20.336;2023-04-24T13:56:27;20.45;;;14.38;;
55330;SDS011;58851;42.984;20.336;2023-04-24T13:58:53;7.70;;;4.78;;
55330;SDS011;58851;42.984;20.336;2023-04-24T14:01:19;10.18;;;4.75;;
55330;SDS011;58851;42.984;20.336;2023-04-24T14:03:49;38.15;;;8.48;;
55330;SDS011;58851;42.984;20.336;2023-04-24T14:06:15;10.43;;;6.90;;
55330;SDS011;58851;42.984;20.336;2023-04-24T14:08:41;19.30;;;10.05;;
55330;SDS011;58851;42.984;20.336;2023-04-24T14:11:07;9.82;;;7.65;;
55330;SDS011;58851;42.984;20.336;2023-04-24T14:13:32;9.02;;;6.93;;
55330;SDS011;58851;42.984;20.336;2023-04-24T14:15:58;10.60;;;7.72;;
55330;SDS011;58851;42.984;20.336;2023-04-24T14:18:24;10.23;;;8.15;;
55330;SDS011;58851;42.984;20.336;2023-04-24T14:20:51;14.07;;;9.50;;
55330;SDS011;58851;42.984;20.336;2023-04-24T14:23:18;10.15;;;6.75;;
55330;SDS011;58851;42.984;20.336;2023-04-24T14:25:43;13.75;;;7.43;;